Time;durP1;ratioP1;P1;durP2;ratioP2;P2;SDS_P1;SDS_P2;PMS_P1;PMS_P2;Temp;Humidity;BMP_temperature;BMP_pressure;BME280_temperature;BME280_humidity;BME280_pressure;Samples;Min_cycle;Max_cycle;Signal;HPM_P1;HPM_P2
2022/06/29 00:02:25;;;;;;;11.10;5.05;;;;;;;21.91;nan;100509.03;4949838;29;20452;-72
2022/06/29 00:04:50;;;;;;;12.60;5.47;;;;;;;21.83;nan;100505.94;4950482;29;20414;-72
2022/06/29 00:07:16;;;;;;;13.82;5.07;;;;;;;21.79;nan;100490.78;4950742;29;20051;-74
2022/06/29 00:09:41;;;;;;;8.85;4.97;;;;;;;21.70;nan;100479.16;4948694;29;20098;-73
2022/06/29 00:12:07;;;;;;;11.77;5.30;;;;;;;21.68;nan;100506.25;4933729;29;20043;-73
2022/06/29 00:14:41;;;;;;;6.60;5.07;;;;;;;21.66;nan;100505.75;4949409;29;20443;-73
2022/06/29 00:17:10;;;;;;;10.25;6.15;;;;;;;21.62;nan;100524.31;4931075;29;20074;-73
2022/06/29 00:19:36;;;;;;;;;;;;;;;21.60;nan;100510.41;4950094;28;20035;-73
2022/06/29 00:22:02;;;;;;;10.57;5.05;;;;;;;21.52;nan;100537.09;4949160;29;19925;-73
2022/06/29 00:24:29;;;;;;;10.18;5.30;;;;;;;21.45;nan;100471.31;4951047;29;20493;-73
2022/06/29 00:26:54;;;;;;;11.93;5.22;;;;;;;21.37;nan;100538.91;4948238;29;20036;-72
2022/06/29 00:29:20;;;;;;;10.18;5.30;;;;;;;21.34;nan;100469.84;4950291;29;20046;-73
2022/06/29 00:31:45;;;;;;;11.23;6.05;;;;;;;21.35;nan;100543.75;4949671;29;20391;-72
2022/06/29 00:34:11;;;;;;;15.95;6.00;;;;;;;21.27;nan;100528.38;4949410;29;20047;-73
2022/06/29 00:36:36;;;;;;;13.20;6.30;;;;;;;21.20;nan;100534.09;4947674;29;20043;-73
2022/06/29 00:39:02;;;;;;;7.18;5.55;;;;;;;21.19;nan;100537.06;4949178;28;20054;-73
2022/06/29 00:41:28;;;;;;;8.73;5.85;;;;;;;21.12;nan;100467.81;4950272;29;20042;-73
2022/06/29 00:43:53;;;;;;;8.05;6.00;;;;;;;21.09;nan;100508.56;4950453;29;20032;-73
2022/06/29 00:46:18;;;;;;;16.33;6.20;;;;;;;21.08;nan;100528.41;4951143;28;20493;-74
2022/06/29 00:48:44;;;;;;;10.70;6.60;;;;;;;20.98;nan;100499.91;4951959;29;20035;-73
2022/06/29 00:51:11;;;;;;;7.53;5.60;;;;;;;20.99;nan;100520.22;4950980;29;20036;-73
2022/06/29 00:53:40;;;;;;;9.27;6.03;;;;;;;20.94;nan;100504.25;4956152;29;20043;-73
2022/06/29 00:56:10;;;;;;;8.00;5.65;;;;;;;20.89;nan;100541.00;4954484;29;20397;-74
2022/06/29 00:58:36;;;;;;;7.45;5.45;;;;;;;20.85;nan;100537.31;4952837;29;20039;-73
2022/06/29 01:01:04;;;;;;;9.93;5.80;;;;;;;20.89;nan;100461.50;4954893;29;20124;-73
2022/06/29 01:03:32;;;;;;;11.32;6.03;;;;;;;20.83;nan;100492.13;4955324;29;20031;-73
2022/06/29 01:05:58;;;;;;;9.20;5.70;;;;;;;20.82;nan;100501.22;4956357;29;20039;-72
2022/06/29 01:08:23;;;;;;;8.20;5.45;;;;;;;20.83;nan;100500.16;4955044;29;20126;-73
2022/06/29 01:10:48;;;;;;;9.70;5.78;;;;;;;20.67;nan;100472.81;4955667;29;20078;-72
2022/06/29 01:13:14;;;;;;;8.73;6.22;;;;;;;20.57;nan;100463.06;4955978;29;20039;-72
2022/06/29 01:15:40;;;;;;;6.85;5.57;;;;;;;20.64;nan;100468.06;4955259;28;20039;-73
2022/06/29 01:18:06;;;;;;;8.55;5.65;;;;;;;20.64;nan;100638.47;4955995;29;20553;-72
2022/06/29 01:20:32;;;;;;;9.48;5.72;;;;;;;20.67;nan;100496.91;4951723;29;20046;-72
2022/06/29 01:22:58;;;;;;;8.32;5.93;;;;;;;20.64;nan;100488.66;4955940;29;20046;-73
2022/06/29 01:25:23;;;;;;;6.95;5.90;;;;;;;20.62;nan;100485.47;4955140;29;20023;-73
2022/06/29 01:27:49;;;;;;;6.78;5.95;;;;;;;20.60;nan;100483.88;4956073;29;20035;-72
2022/06/29 01:30:14;;;;;;;8.68;6.38;;;;;;;;;;4955999;29;20036;-73
2022/06/29 01:32:40;;;;;;;12.00;6.07;;;;;;;20.56;nan;100482.84;4954216;29;20035;-74
2022/06/29 01:35:11;;;;;;;10.80;6.47;;;;;;;20.56;nan;100479.41;4955892;29;20293;-73
2022/06/29 01:37:39;;;;;;;11.35;6.20;;;;;;;20.55;nan;100465.22;4954617;29;20563;-74
2022/06/29 01:40:05;;;;;;;9.02;6.30;;;;;;;20.44;nan;100454.94;4955511;29;20031;-74
2022/06/29 01:42:30;;;;;;;11.93;6.07;;;;;;;20.53;nan;100469.25;4953647;29;20039;-74
2022/06/29 01:44:56;;;;;;;7.28;6.07;;;;;;;20.50;nan;100473.31;4955698;29;20050;-72
2022/06/29 01:47:21;;;;;;;7.88;6.10;;;;;;;20.52;nan;100455.09;4956861;29;20041;-74
2022/06/29 01:49:47;;;;;;;8.30;6.10;;;;;;;;;;4955012;29;20077;-74
2022/06/29 01:52:12;;;;;;;11.87;6.43;;;;;;;20.39;nan;100437.06;4955741;29;20035;-74
2022/06/29 01:54:38;;;;;;;6.93;5.70;;;;;;;20.52;nan;100473.81;4953314;29;20647;-73
2022/06/29 01:57:03;;;;;;;8.20;6.00;;;;;;;20.49;nan;100433.47;4953986;28;20637;-74
2022/06/29 01:59:29;;;;;;;8.25;5.70;;;;;;;20.51;nan;100472.19;4955027;29;20027;-74
2022/06/29 02:01:54;;;;;;;12.77;6.25;;;;;;;20.50;nan;100472.50;4953120;29;20039;-73
2022/06/29 02:04:20;;;;;;;10.10;5.80;;;;;;;20.34;nan;100445.97;4955457;29;20034;-74
2022/06/29 02:06:45;;;;;;;7.47;5.80;;;;;;;20.44;nan;100442.34;4955396;29;20390;-74
2022/06/29 02:09:10;;;;;;;6.82;5.50;;;;;;;20.43;nan;100467.53;4954501;29;20054;-73
2022/06/29 02:11:36;;;;;;;9.43;5.53;;;;;;;20.39;nan;100424.50;4955809;29;20039;-74
2022/06/29 02:14:01;;;;;;;10.13;5.47;;;;;;;20.44;nan;100458.41;4953099;28;20043;-74
2022/06/29 02:16:27;;;;;;;8.63;6.07;;;;;;;20.39;nan;100445.88;4953235;29;20035;-74
2022/06/29 02:18:53;;;;;;;9.63;5.60;;;;;;;20.37;nan;100432.00;4951663;29;20366;-72
2022/06/29 02:21:18;;;;;;;9.05;5.60;;;;;;;20.30;nan;100414.75;4953591;29;20039;-74
2022/06/29 02:23:44;;;;;;;9.77;5.78;;;;;;;20.35;nan;100454.78;4952148;29;20090;-74
2022/06/29 02:26:10;;;;;;;7.07;5.70;;;;;;;;;;4954022;29;20094;-74
2022/06/29 02:28:36;;;;;;;8.05;5.35;;;;;;;20.31;nan;100451.09;4955135;29;20397;-74
2022/06/29 02:36:30;;;;;;;8.85;5.80;;;;;;;20.30;nan;100438.81;4953641;29;20561;-74
2022/06/29 02:38:55;;;;;;;9.30;5.43;;;;;;;20.33;nan;100462.31;4937167;29;20067;-74
2022/06/29 02:41:20;;;;;;;11.57;5.55;;;;;;;20.33;nan;100446.28;4954862;29;20126;-73
2022/06/29 02:43:46;;;;;;;9.35;4.88;;;;;;;20.35;nan;100462.78;4952970;29;20495;-73
2022/06/29 02:46:12;;;;;;;7.68;5.25;;;;;;;20.36;nan;100467.88;4951582;29;20083;-74
2022/06/29 02:48:37;;;;;;;9.32;5.00;;;;;;;20.34;nan;100471.91;4952391;29;20041;-74
2022/06/29 02:51:03;;;;;;;9.82;5.75;;;;;;;20.30;nan;100474.34;4934681;29;20067;-74
2022/06/29 02:53:28;;;;;;;7.35;5.80;;;;;;;20.32;nan;100477.53;4950993;29;20489;-73
2022/06/29 02:55:54;;;;;;;7.53;5.22;;;;;;;20.27;nan;100527.63;4937158;29;20506;-74
2022/06/29 02:58:19;;;;;;;8.27;5.88;;;;;;;20.28;nan;100455.16;4950029;29;20042;-73
2022/06/29 03:00:45;;;;;;;9.45;5.55;;;;;;;20.31;nan;100459.13;4952653;29;20027;-73
2022/06/29 03:03:10;;;;;;;12.10;6.43;;;;;;;20.32;nan;100471.41;4950278;29;20035;-73
2022/06/29 03:05:36;;;;;;;7.80;5.90;;;;;;;20.24;nan;100459.47;4948856;29;20053;-73
2022/06/29 03:08:01;;;;;;;8.77;5.00;;;;;;;20.19;nan;100444.28;4954544;29;20042;-73
2022/06/29 03:10:27;;;;;;;10.35;5.88;;;;;;;20.19;nan;100489.75;4952672;28;20074;-73
2022/06/29 03:12:52;;;;;;;10.30;5.10;;;;;;;;;;4953377;29;20038;-74
2022/06/29 03:15:18;;;;;;;8.05;5.30;;;;;;;20.11;nan;100454.81;4951818;29;20413;-73
2022/06/29 03:17:43;;;;;;;10.48;5.05;;;;;;;20.11;nan;100485.06;4948637;29;20031;-73
2022/06/29 03:20:09;;;;;;;6.47;4.97;;;;;;;20.03;nan;100512.41;4946702;29;20147;-73
2022/06/29 03:22:35;;;;;;;9.68;5.20;;;;;;;20.11;nan;100500.28;4949441;29;20126;-73
2022/06/29 03:25:01;;;;;;;6.50;5.10;;;;;;;20.09;nan;100489.09;4948642;29;20495;-73
2022/06/29 03:27:26;;;;;;;9.10;5.28;;;;;;;20.11;nan;100485.06;4951795;29;20039;-73
2022/06/29 03:29:52;;;;;;;15.38;5.70;;;;;;;19.94;nan;100482.03;4948407;29;20035;-74
2022/06/29 03:32:17;;;;;;;12.57;5.72;;;;;;;19.86;nan;100475.44;4952292;29;20548;-73
2022/06/29 03:34:43;;;;;;;10.52;5.60;;;;;;;19.81;nan;100483.53;4952900;29;20039;-74
2022/06/29 03:37:08;;;;;;;6.88;5.45;;;;;;;19.88;nan;100467.16;4950499;29;20062;-74
2022/06/29 03:39:34;;;;;;;8.13;5.97;;;;;;;19.87;nan;100454.84;4950576;29;20118;-73
2022/06/29 03:42:00;;;;;;;6.68;5.10;;;;;;;19.77;nan;100453.88;4952092;29;20038;-73
2022/06/29 03:44:25;;;;;;;8.30;5.80;;;;;;;;;;4950939;28;20063;-73
2022/06/29 03:46:51;;;;;;;8.98;6.03;;;;;;;19.91;nan;100450.53;4953487;29;20039;-73
2022/06/29 03:49:16;;;;;;;7.05;5.35;;;;;;;19.89;nan;100458.84;4951657;29;20035;-72
2022/06/29 03:51:41;;;;;;;9.73;5.80;;;;;;;19.86;nan;100458.63;4950591;29;20094;-73
2022/06/29 03:54:07;;;;;;;11.27;5.78;;;;;;;20.03;nan;100436.75;4951581;28;20454;-73
2022/06/29 03:56:32;;;;;;;7.15;5.70;;;;;;;20.04;nan;100457.88;4952427;29;20035;-72
2022/06/29 03:58:57;;;;;;;10.00;5.57;;;;;;;20.12;nan;100427.81;4952154;29;20037;-73
2022/06/29 04:01:23;;;;;;;9.80;5.80;;;;;;;20.17;nan;100403.69;4949650;28;20042;-72
2022/06/29 04:03:48;;;;;;;6.38;5.45;;;;;;;20.23;nan;100454.41;4951444;28;20474;-73
2022/06/29 04:06:14;;;;;;;11.70;6.03;;;;;;;20.28;nan;100455.16;4952459;29;20455;-73
2022/06/29 04:08:40;;;;;;;10.75;5.80;;;;;;;20.33;nan;100455.09;4935604;29;20035;-72
2022/06/29 04:11:48;;;;;;;7.78;5.72;;;;;;;20.35;nan;100452.91;4952512;29;20082;-73
2022/06/29 04:13:52;;;;;;;8.00;5.53;;;;;;;20.47;nan;100467.72;4938431;29;20050;-73
2022/06/29 04:16:18;;;;;;;8.48;5.18;;;;;;;20.49;nan;100446.81;4949110;29;20059;-73
2022/06/29 04:18:43;;;;;;;7.47;5.20;;;;;;;20.52;nan;100460.44;4951499;29;20066;-73
2022/06/29 04:21:09;;;;;;;7.80;5.43;;;;;;;20.60;nan;100440.28;4951381;29;20042;-72
2022/06/29 04:23:34;;;;;;;8.10;5.30;;;;;;;20.67;nan;100442.59;4947864;29;20531;-72
2022/06/29 04:26:00;;;;;;;6.55;5.07;;;;;;;20.76;nan;100456.91;4951115;29;20050;-75
2022/06/29 04:28:25;;;;;;;7.25;5.10;;;;;;;20.82;nan;100455.72;4947503;29;20409;-73
2022/06/29 04:30:51;;;;;;;8.45;5.63;;;;;;;20.93;nan;100465.19;4950322;29;20035;-73
2022/06/29 04:33:16;;;;;;;9.35;5.47;;;;;;;20.89;nan;100447.31;4951279;29;20085;-73
2022/06/29 04:35:41;;;;;;;11.90;5.75;;;;;;;21.11;nan;100452.03;4951912;28;20035;-73
2022/06/29 04:38:07;;;;;;;8.00;5.40;;;;;;;;;;4951090;29;20415;-73
2022/06/29 04:40:32;;;;;;;9.73;5.22;;;;;;;21.33;nan;100435.31;4944732;29;20046;-72
2022/06/29 04:42:58;;;;;;;11.25;5.18;;;;;;;21.41;nan;100448.06;4950038;29;20031;-74
2022/06/29 04:48:29;;;;;;;12.15;5.60;;;;;;;21.71;nan;100464.66;4891934;29;20051;-74
2022/06/29 04:50:55;;;;;;;9.20;5.43;;;;;;;21.82;nan;100504.38;4874590;29;20077;-66
2022/06/29 04:53:20;;;;;;;17.45;5.80;;;;;;;21.93;nan;100482.72;4893578;29;20454;-67
2022/06/29 04:55:46;;;;;;;11.65;4.85;;;;;;;22.12;nan;100455.78;4893913;29;20045;-67
2022/06/29 04:58:11;;;;;;;6.13;5.00;;;;;;;22.19;nan;100405.19;4891235;29;20524;-67
2022/06/29 05:00:37;;;;;;;10.13;5.07;;;;;;;22.32;nan;100435.81;4891754;29;20127;-66
2022/06/29 05:03:02;;;;;;;11.05;5.30;;;;;;;22.38;nan;100458.75;4892471;29;20089;-67
2022/06/29 05:05:28;;;;;;;11.93;4.88;;;;;;;22.57;nan;100437.09;4893811;29;20032;-68
2022/06/29 05:07:53;;;;;;;9.90;5.18;;;;;;;22.58;nan;100458.28;4891858;29;20041;-67
2022/06/29 05:10:19;;;;;;;9.65;5.05;;;;;;;22.76;nan;100456.50;4891207;29;20044;-68
2022/06/29 05:12:44;;;;;;;8.40;5.22;;;;;;;22.86;nan;100425.94;4892219;29;20092;-68
2022/06/29 05:15:10;;;;;;;12.25;5.15;;;;;;;22.91;nan;100375.59;4893300;29;20033;-69
2022/06/29 05:17:39;;;;;;;8.85;5.15;;;;;;;;;;4892641;29;20052;-69
2022/06/29 05:20:09;;;;;;;13.73;5.45;;;;;;;23.14;nan;100458.84;4938840;29;20090;-69
2022/06/29 05:22:38;;;;;;;12.77;5.22;;;;;;;23.20;nan;100454.94;4949577;28;20094;-66
2022/06/29 05:25:04;;;;;;;8.45;4.80;;;;;;;23.30;nan;100446.59;4934245;29;20039;-66
2022/06/29 05:27:29;;;;;;;7.45;4.72;;;;;;;23.52;nan;100444.94;4951487;28;20037;-66
2022/06/29 05:29:55;;;;;;;12.70;4.68;;;;;;;23.65;nan;100475.50;4934264;29;20039;-66
2022/06/29 05:32:20;;;;;;;9.63;5.40;;;;;;;23.81;nan;100457.88;4949709;28;20035;-67
2022/06/29 05:34:46;;;;;;;11.10;5.60;;;;;;;23.84;nan;100465.31;4950705;29;20433;-66
2022/06/29 05:37:11;;;;;;;23.75;5.88;;;;;;;23.97;nan;100467.09;4951822;29;20054;-67
2022/06/29 05:39:37;;;;;;;10.95;4.75;;;;;;;24.10;nan;100445.75;4952839;29;20023;-66
2022/06/29 05:42:03;;;;;;;15.30;5.47;;;;;;;24.17;nan;100451.47;4954687;29;20054;-67
2022/06/29 05:44:29;;;;;;;16.65;5.45;;;;;;;24.29;nan;100470.47;4936647;29;20043;-67
2022/06/29 05:46:54;;;;;;;16.92;5.28;;;;;;;24.45;nan;100465.41;4953655;29;20123;-68
2022/06/29 05:49:20;;;;;;;13.85;5.35;;;;;;;24.63;nan;100447.38;4953450;29;20046;-67
2022/06/29 05:51:45;;;;;;;14.85;6.22;;;;;;;24.75;nan;100516.75;4949338;29;20102;-74
2022/06/29 05:54:11;;;;;;;7.25;4.90;;;;;;;24.88;nan;100477.28;4935567;29;20459;-74
2022/06/29 05:56:36;;;;;;;8.02;4.78;;;;;;;24.97;nan;100475.38;4952671;29;20402;-74
2022/06/29 05:59:02;;;;;;;15.18;4.95;;;;;;;25.00;nan;100458.59;4954945;29;20477;-75
2022/06/29 06:01:28;;;;;;;9.60;4.40;;;;;;;25.18;nan;100473.59;4951380;29;20043;-75
2022/06/29 06:03:53;;;;;;;11.82;5.65;;;;;;;25.29;nan;100465.19;4951459;29;20476;-74
2022/06/29 06:06:18;;;;;;;12.07;4.32;;;;;;;25.35;nan;100532.06;4953166;29;20050;-74
2022/06/29 06:08:44;;;;;;;11.13;4.82;;;;;;;25.45;nan;100456.25;4947262;29;20043;-76
2022/06/29 06:11:09;;;;;;;9.65;5.43;;;;;;;25.37;nan;100427.41;4951884;29;20130;-74
2022/06/29 06:13:35;;;;;;;7.47;4.18;;;;;;;25.70;nan;100453.75;4949995;29;20083;-75
2022/06/29 06:16:00;;;;;;;6.43;4.43;;;;;;;25.79;nan;100472.59;4953941;29;20063;-76
2022/06/29 06:18:25;;;;;;;5.45;3.67;;;;;;;25.79;nan;100442.94;4949366;29;20043;-75
2022/06/29 06:20:51;;;;;;;4.55;3.92;;;;;;;;;;4953199;29;20042;-74
2022/06/29 06:23:16;;;;;;;6.17;4.07;;;;;;;26.13;nan;100449.25;4955862;29;20080;-74
2022/06/29 06:25:42;;;;;;;13.48;5.57;;;;;;;26.27;nan;100476.78;4947931;29;20273;-75
2022/06/29 06:28:08;;;;;;;8.60;4.25;;;;;;;26.30;nan;100454.50;4951513;29;20039;-74
2022/06/29 06:30:33;;;;;;;6.32;4.18;;;;;;;26.37;nan;100411.56;4947478;29;20042;-74
2022/06/29 06:32:59;;;;;;;6.22;4.03;;;;;;;26.42;nan;100456.47;4954189;29;20362;-74
2022/06/29 06:35:24;;;;;;;9.73;4.25;;;;;;;26.51;nan;100470.69;4952301;29;20043;-74
2022/06/29 06:37:52;;;;;;;8.43;4.10;;;;;;;26.59;nan;100429.34;4952920;29;20442;-76
2022/06/29 06:43:01;;;;;;;5.95;4.15;;;;;;;26.76;nan;100476.22;4954268;29;20035;-73
2022/06/29 06:45:27;;;;;;;6.20;4.35;;;;;;;26.95;nan;100481.91;4950982;29;20039;-74
2022/06/29 06:47:53;;;;;;;4.75;3.80;;;;;;;27.06;nan;100476.91;4951624;29;20047;-74
2022/06/29 06:50:18;;;;;;;6.63;3.95;;;;;;;27.13;nan;100471.72;4953457;28;20037;-74
2022/06/29 06:52:44;;;;;;;4.43;4.00;;;;;;;27.08;nan;100453.00;4954003;29;20027;-75
2022/06/29 06:55:09;;;;;;;8.23;4.45;;;;;;;27.22;nan;100439.97;4949031;29;20039;-74
2022/06/29 06:57:35;;;;;;;6.20;4.22;;;;;;;27.25;nan;100468.25;4952931;29;20042;-75
2022/06/29 07:00:01;;;;;;;6.57;4.25;;;;;;;27.28;nan;100456.78;4951477;29;20469;-74
2022/06/29 07:02:26;;;;;;;4.68;4.15;;;;;;;27.26;nan;100437.41;4929992;29;20066;-74
2022/06/29 07:04:52;;;;;;;6.28;4.32;;;;;;;27.37;nan;100449.38;4937305;29;20122;-76
2022/06/29 07:07:17;;;;;;;6.72;4.18;;;;;;;27.46;nan;100449.25;4948636;29;20034;-74
2022/06/29 07:09:43;;;;;;;5.35;4.03;;;;;;;27.47;nan;100435.41;4936531;29;20050;-74
2022/06/29 07:12:08;;;;;;;7.30;4.32;;;;;;;27.53;nan;100430.53;4954219;29;20035;-76
2022/06/29 07:14:34;;;;;;;4.50;3.95;;;;;;;27.61;nan;100443.19;4954568;29;20168;-75
2022/06/29 07:16:59;;;;;;;4.95;4.10;;;;;;;27.73;nan;100431.56;4948095;29;20059;-74
2022/06/29 07:19:24;;;;;;;7.07;4.38;;;;;;;27.76;nan;100453.31;4934132;29;20035;-75
2022/06/29 07:21:50;;;;;;;6.03;3.75;;;;;;;27.86;nan;100443.97;4948761;29;20039;-74
2022/06/29 07:24:15;;;;;;;6.22;3.97;;;;;;;27.90;nan;100433.25;4946444;29;20146;-75
2022/06/29 07:26:41;;;;;;;8.52;3.88;;;;;;;27.90;nan;100444.88;4950776;29;20370;-75
2022/06/29 07:29:06;;;;;;;6.10;4.10;;;;;;;27.98;nan;100400.63;4952931;29;20031;-76
2022/06/29 07:31:32;;;;;;;5.60;4.03;;;;;;;28.16;nan;100482.38;4954536;29;20031;-74
2022/06/29 07:33:57;;;;;;;4.63;3.80;;;;;;;28.37;nan;100429.94;4949558;29;20047;-75
2022/06/29 07:36:25;;;;;;;5.30;4.15;;;;;;;28.44;nan;100427.44;4948463;28;20038;-75
2022/06/29 07:38:51;;;;;;;5.00;3.60;;;;;;;28.47;nan;100423.28;4952083;29;20054;-75
2022/06/29 07:41:16;;;;;;;5.55;3.80;;;;;;;;;;4950311;29;20481;-73
2022/06/29 07:43:43;;;;;;;4.53;3.97;;;;;;;28.66;nan;100430.75;4949933;29;20062;-74
2022/06/29 07:46:09;;;;;;;5.10;3.58;;;;;;;28.79;nan;100443.13;4953863;29;20356;-73
2022/06/29 07:48:34;;;;;;;4.47;3.40;;;;;;;28.81;nan;100446.28;4950794;29;20856;-74
2022/06/29 07:51:00;;;;;;;8.70;3.80;;;;;;;28.84;nan;100457.19;4933844;29;20525;-74
2022/06/29 07:53:26;;;;;;;5.15;3.60;;;;;;;29.00;nan;100445.59;4936694;29;20067;-73
2022/06/29 07:55:51;;;;;;;8.00;3.95;;;;;;;29.12;nan;100450.19;4950333;28;20442;-73
2022/06/29 07:58:17;;;;;;;12.27;4.07;;;;;;;29.11;nan;100451.31;4951386;29;20063;-74
2022/06/29 08:00:42;;;;;;;4.10;3.60;;;;;;;;;;4954151;29;20482;-75
2022/06/29 08:03:08;;;;;;;5.57;3.67;;;;;;;29.27;nan;100443.97;4948535;29;20044;-74
2022/06/29 08:05:34;;;;;;;5.57;3.60;;;;;;;29.33;nan;100452.63;4949711;29;20122;-72
2022/06/29 08:08:00;;;;;;;7.68;3.65;;;;;;;29.42;nan;100467.56;4949836;29;20046;-74
2022/06/29 08:10:26;;;;;;;5.25;3.78;;;;;;;29.46;nan;100435.91;4951695;29;20035;-74
2022/06/29 08:12:51;;;;;;;9.43;4.13;;;;;;;29.56;nan;100431.09;4952046;29;20089;-74
2022/06/29 08:15:17;;;;;;;6.28;3.30;;;;;;;29.63;nan;100482.81;4949866;29;20043;-74
2022/06/29 08:17:44;;;;;;;5.55;3.25;;;;;;;29.72;nan;100429.16;4935443;29;20027;-73
2022/06/29 08:20:10;;;;;;;3.97;3.63;;;;;;;29.76;nan;100426.50;4952176;29;20042;-74
2022/06/29 08:22:35;;;;;;;9.05;3.88;;;;;;;29.85;nan;100462.38;4951312;29;20501;-75
2022/06/29 08:25:01;;;;;;;7.60;3.45;;;;;;;29.94;nan;100470.34;4952800;29;20169;-74
2022/06/29 08:27:26;;;;;;;4.18;3.72;;;;;;;29.97;nan;100480.50;4948622;29;20508;-74
2022/06/29 08:29:51;;;;;;;5.45;4.13;;;;;;;30.03;nan;100400.34;4954361;28;20050;-73
2022/06/29 08:32:17;;;;;;;6.57;3.72;;;;;;;30.13;nan;100399.75;4947162;29;20065;-74
2022/06/29 08:34:42;;;;;;;5.55;3.33;;;;;;;30.23;nan;100420.91;4951367;29;20038;-73
2022/06/29 08:37:08;;;;;;;7.03;3.78;;;;;;;30.25;nan;100485.75;4951587;29;20051;-73
2022/06/29 08:39:33;;;;;;;5.95;3.67;;;;;;;30.33;nan;100459.53;4952279;29;20105;-73
2022/06/29 08:42:04;;;;;;;6.38;3.28;;;;;;;30.43;nan;100456.25;4949654;29;20143;-73
2022/06/29 08:44:34;;;;;;;5.32;3.85;;;;;;;30.51;nan;100430.81;4951965;29;20089;-73
2022/06/29 08:47:01;;;;;;;6.07;3.88;;;;;;;30.54;nan;100367.56;4935554;29;20035;-72
2022/06/29 08:49:27;;;;;;;6.65;3.53;;;;;;;30.58;nan;100408.41;4953123;29;20037;-73
2022/06/29 08:51:56;;;;;;;7.45;3.83;;;;;;;30.58;nan;100392.09;4951730;29;20481;-72
2022/06/29 08:54:24;;;;;;;4.45;3.22;;;;;;;30.68;nan;100408.59;4952711;29;20031;-71
2022/06/29 08:56:51;;;;;;;6.63;3.45;;;;;;;30.78;nan;100420.81;4951819;29;20042;-72
2022/06/29 08:59:17;;;;;;;8.25;3.63;;;;;;;30.89;nan;100453.66;4951032;29;20054;-72
2022/06/29 09:01:43;;;;;;;4.63;3.20;;;;;;;30.99;nan;100414.19;4948042;29;20062;-69
2022/06/29 09:04:08;;;;;;;4.80;3.40;;;;;;;31.08;nan;100414.72;4949425;29;20123;-70
2022/06/29 09:06:34;;;;;;;3.97;3.47;;;;;;;31.10;nan;100415.13;4951095;28;20038;-71
2022/06/29 09:08:59;;;;;;;5.20;3.38;;;;;;;31.14;nan;100451.34;4956631;29;20435;-72
2022/06/29 09:11:31;;;;;;;5.82;3.20;;;;;;;31.19;nan;100414.91;4944122;29;20039;-71
2022/06/29 09:14:13;;;;;;;4.32;2.83;;;;;;;31.35;nan;100434.59;4952977;29;20058;-72
2022/06/29 09:16:59;;;;;;;3.35;3.05;;;;;;;31.51;nan;100424.38;4956813;29;20045;-73
2022/06/29 09:19:29;;;;;;;5.03;3.15;;;;;;;31.60;nan;100432.25;4952778;29;20040;-72
2022/06/29 09:21:57;;;;;;;4.68;3.13;;;;;;;31.63;nan;100398.06;4956428;29;20031;-73
2022/06/29 09:24:25;;;;;;;7.63;3.00;;;;;;;31.70;nan;100387.28;4952527;29;20027;-72
2022/06/29 09:26:58;;;;;;;5.20;2.92;;;;;;;31.76;nan;100432.09;4931916;29;20047;-71
2022/06/29 09:29:27;;;;;;;5.38;2.83;;;;;;;31.82;nan;100395.22;4952587;29;20031;-72
2022/06/29 09:32:01;;;;;;;6.90;3.00;;;;;;;31.82;nan;100400.66;4958413;28;20089;-72
2022/06/29 09:34:51;;;;;;;4.85;3.08;;;;;;;31.86;nan;100403.44;4955012;28;20035;-73
2022/06/29 09:37:20;;;;;;;9.15;4.70;;;;;;;31.92;nan;100355.69;4947553;29;20529;-72
2022/06/29 09:39:52;;;;;;;14.05;3.63;;;;;;;31.99;nan;100389.25;4953624;29;20035;-70
2022/06/29 09:42:20;;;;;;;11.82;3.40;;;;;;;32.13;nan;100396.00;4954160;29;20118;-73
2022/06/29 09:44:47;;;;;;;3.83;2.90;;;;;;;32.16;nan;100392.56;4949358;29;20047;-73
2022/06/29 09:47:17;;;;;;;32.00;4.63;;;;;;;32.25;nan;100393.03;4953040;29;20105;-73
2022/06/29 09:49:53;;;;;;;4.25;3.10;;;;;;;32.36;nan;100395.88;4955156;29;20366;-72
2022/06/29 09:52:19;;;;;;;6.10;2.90;;;;;;;32.40;nan;100389.31;4952247;29;20031;-72
2022/06/29 09:54:51;;;;;;;9.48;3.53;;;;;;;32.49;nan;100399.13;4954414;29;20038;-73
2022/06/29 09:57:21;;;;;;;9.20;2.97;;;;;;;32.52;nan;100374.66;4953325;29;20035;-73
2022/06/29 10:02:39;;;;;;;6.88;3.00;;;;;;;32.68;nan;100379.09;4955914;29;20038;-72
2022/06/29 10:05:08;;;;;;;3.15;2.60;;;;;;;32.75;nan;100371.75;4953860;29;20023;-72
2022/06/29 10:07:39;;;;;;;4.65;2.63;;;;;;;32.79;nan;100350.75;4952487;29;20047;-72
2022/06/29 10:10:08;;;;;;;6.35;2.88;;;;;;;32.80;nan;100363.25;4955633;29;20134;-71
2022/06/29 10:16:07;;;;;;;20.65;4.00;;;;;;;32.88;nan;100358.63;4938560;29;19922;-72
2022/06/29 10:19:03;;;;;;;14.98;3.15;;;;;;;32.95;nan;100342.31;4952716;28;20038;-72
2022/06/29 10:21:31;;;;;;;21.77;3.65;;;;;;;32.98;nan;100338.03;4952213;29;20159;-73
2022/06/29 10:24:00;;;;;;;20.08;4.20;;;;;;;33.03;nan;100444.88;4951587;29;20036;-73
2022/06/29 10:26:35;;;;;;;6.70;2.85;;;;;;;33.13;nan;100342.44;4934552;29;20066;-73
2022/06/29 10:29:10;;;;;;;5.82;2.78;;;;;;;33.18;nan;100350.28;4954984;28;20070;-73
2022/06/29 10:31:53;;;;;;;4.93;2.88;;;;;;;33.22;nan;100359.28;4955673;29;20493;-73
2022/06/29 10:34:28;;;;;;;6.75;2.97;;;;;;;33.31;nan;100358.94;4949234;29;20050;-73
2022/06/29 10:37:02;;;;;;;5.10;2.92;;;;;;;33.36;nan;100347.66;4954264;29;20059;-72
2022/06/29 10:39:59;;;;;;;4.53;3.08;;;;;;;33.36;nan;100335.97;4952596;29;20496;-73
2022/06/29 10:45:16;;;;;;;4.00;2.90;;;;;;;33.37;nan;100332.06;4950605;29;20035;-72
2022/06/29 10:48:12;;;;;;;5.38;2.85;;;;;;;33.42;nan;100304.41;4951483;29;20086;-72
2022/06/29 10:50:39;;;;;;;3.22;2.80;;;;;;;33.34;nan;100314.50;4954444;29;20035;-73
2022/06/29 10:53:15;;;;;;;3.47;2.90;;;;;;;33.38;nan;100309.84;4948745;29;20391;-72
2022/06/29 10:55:46;;;;;;;3.25;2.95;;;;;;;33.32;nan;100258.72;4954780;29;20553;-72
2022/06/29 10:58:12;;;;;;;4.43;2.85;;;;;;;33.34;nan;100319.19;4954569;29;20038;-73
2022/06/29 11:00:44;;;;;;;7.13;2.88;;;;;;;33.45;nan;100306.34;4954412;29;20394;-72
2022/06/29 11:03:18;;;;;;;4.32;2.60;;;;;;;33.45;nan;100284.50;4951224;29;20421;-73
2022/06/29 11:14:06;;;;;;;7.43;3.03;;;;;;;33.59;nan;100302.94;4952190;29;20114;-73
2022/06/29 11:16:36;;;;;;;6.97;2.80;;;;;;;33.50;nan;100335.25;4954788;29;20031;-72
2022/06/29 11:19:03;;;;;;;4.45;2.63;;;;;;;33.54;nan;100286.91;4949086;29;20027;-70
2022/06/29 11:21:29;;;;;;;6.13;2.95;;;;;;;33.60;nan;100283.44;4937186;29;20039;-72
2022/06/29 11:24:03;;;;;;;5.18;2.70;;;;;;;33.63;nan;100284.63;4954296;29;20436;-72
2022/06/29 11:26:30;;;;;;;3.40;2.70;;;;;;;33.59;nan;100243.66;4937216;29;20498;-73
2022/06/29 11:28:57;;;;;;;6.28;2.90;;;;;;;33.64;nan;100262.41;4952531;29;20047;-70
2022/06/29 11:31:23;;;;;;;5.53;3.15;;;;;;;33.68;nan;100265.13;4954304;28;20035;-71
2022/06/29 11:33:51;;;;;;;9.02;3.40;;;;;;;33.81;nan;100295.59;4950912;28;20158;-72
2022/06/29 11:36:21;;;;;;;3.03;2.60;;;;;;;33.74;nan;100265.53;4954208;29;20050;-72
2022/06/29 11:38:53;;;;;;;3.38;2.88;;;;;;;33.73;nan;100267.50;4951821;29;20052;-72
2022/06/29 11:41:26;;;;;;;4.13;2.67;;;;;;;33.76;nan;100274.94;4950662;29;20042;-73
2022/06/29 11:44:02;;;;;;;5.22;2.97;;;;;;;33.79;nan;100248.78;4951068;29;20118;-71
2022/06/29 11:46:30;;;;;;;9.45;2.97;;;;;;;33.92;nan;100263.63;4948369;29;20028;-72
2022/06/29 11:51:49;;;;;;;3.70;2.70;;;;;;;34.09;nan;100273.06;4949461;29;20031;-71
2022/06/29 11:54:15;;;;;;;3.47;2.60;;;;;;;34.18;nan;100270.72;4947322;29;20486;-71
2022/06/29 11:56:43;;;;;;;4.68;2.72;;;;;;;34.22;nan;100268.00;4953081;29;20031;-71
2022/06/29 11:59:15;;;;;;;7.25;3.05;;;;;;;34.16;nan;100242.22;4936425;29;20066;-72
2022/06/29 12:01:50;;;;;;;3.45;2.78;;;;;;;34.21;nan;100267.22;4933881;29;20565;-72
2022/06/29 12:04:27;;;;;;;4.45;2.83;;;;;;;34.28;nan;100236.38;4937276;29;20042;-72
2022/06/29 12:07:07;;;;;;;5.38;2.92;;;;;;;34.18;nan;100177.81;4948654;29;20036;-72
2022/06/29 12:09:34;;;;;;;3.00;2.60;;;;;;;34.23;nan;100234.81;4952379;29;20031;-72
2022/06/29 12:12:00;;;;;;;4.57;2.78;;;;;;;34.33;nan;100243.41;4953774;28;20090;-71
2022/06/29 12:14:25;;;;;;;3.33;2.75;;;;;;;34.35;nan;100214.50;4954160;29;20028;-72
2022/06/29 12:16:51;;;;;;;6.60;3.25;;;;;;;34.36;nan;100235.22;4954035;29;20034;-71